Time;durP1;ratioP1;P1;durP2;ratioP2;P2;SDS_P1;SDS_P2;PMS_P1;PMS_P2;Temp;Humidity;BMP_temperature;BMP_pressure;BME280_temperature;BME280_humidity;BME280_pressure;Samples;Min_cycle;Max_cycle;Signal;HPM_P1;HPM_P2
2022/05/03 00:00:28;;;;;;;4.03;3.72;;;;;;;;;;5073240;28;20219;-83
2022/05/03 00:03:03;;;;;;;4.15;3.85;;;;;;;;;;5071713;28;20197;-82
2022/05/03 00:05:38;;;;;;;3.67;3.38;;;;;;;;;;5073068;28;20207;-83
2022/05/03 00:08:13;;;;;;;4.95;4.43;;;;;;;;;;5072765;28;20622;-82
2022/05/03 00:10:50;;;;;;;4.43;4.03;;;;;;;;;;5072875;28;20258;-83
2022/05/03 00:13:23;;;;;;;4.25;3.85;;;;;;;;;;5051911;28;20287;-82
2022/05/03 00:15:50;;;;;;;4.15;3.85;;;;;;;;;;5052991;28;20212;-82
2022/05/03 00:18:18;;;;;;;4.32;4.00;;;;;;;;;;5052550;28;20623;-82
2022/05/03 00:20:47;;;;;;;4.30;3.90;;;;;;;;;;5052495;28;20221;-82
2022/05/03 00:23:16;;;;;;;5.70;4.13;;;;;;;;;;5051927;28;20236;-82
2022/05/03 00:25:44;;;;;;;4.68;4.28;;;;;;;;;;5052610;28;20232;-82
2022/05/03 00:28:12;;;;;;;4.97;3.85;;;;;;;;;;5052410;28;20210;-82
2022/05/03 00:30:40;;;;;;;4.93;4.47;;;;;;;;;;5052374;28;20226;-82
2022/05/03 00:33:09;;;;;;;4.55;4.15;;;;;;;;;;5051303;28;20201;-82
2022/05/03 00:35:36;;;;;;;4.18;3.88;;;;;;;;;;5052418;28;20209;-82
2022/05/03 00:38:03;;;;;;;4.18;3.80;;;;;;;;;;5052597;28;20208;-82
2022/05/03 00:40:33;;;;;;;4.88;4.38;;;;;;;;;;5052266;28;20303;-82
2022/05/03 00:43:09;;;;;;;5.40;4.53;;;;;;;;;;5070664;28;20209;-82
2022/05/03 00:45:42;;;;;;;4.68;4.38;;;;;;;;;;5072552;28;20204;-82
2022/05/03 00:48:22;;;;;;;5.32;4.93;;;;;;;;;;5071901;28;20205;-82
2022/05/03 00:50:59;;;;;;;4.75;4.35;;;;;;;;;;5072272;28;20704;-82
2022/05/03 00:53:33;;;;;;;4.85;4.45;;;;;;;;;;5071919;28;20204;-82
2022/05/03 00:56:25;;;;;;;4.90;4.50;;;;;;;;;;5072392;28;20196;-81
2022/05/03 00:59:01;;;;;;;4.97;4.45;;;;;;;;;;5072357;28;20205;-82
2022/05/03 01:01:38;;;;;;;6.15;5.00;;;;;;;;;;5071827;28;20228;-82
2022/05/03 01:04:15;;;;;;;6.60;4.93;;;;;;;;;;5072600;28;20200;-82
2022/05/03 01:06:56;;;;;;;5.72;5.15;;;;;;;;;;5072338;28;20403;-81
2022/05/03 01:09:32;;;;;;;5.50;5.00;;;;;;;;;;5072052;28;20255;-82
2022/05/03 01:12:24;;;;;;;5.55;5.05;;;;;;;;;;5071101;28;20708;-82
2022/05/03 01:15:06;;;;;;;5.45;4.95;;;;;;;;;;5072257;28;20231;-82
2022/05/03 01:17:44;;;;;;;4.95;4.55;;;;;;;;;;5071934;28;20201;-81
2022/05/03 01:20:15;;;;;;;5.35;4.85;;;;;;;;;;5072064;28;20312;-82
2022/05/03 01:23:43;;;;;;;5.80;5.30;;;;;;;;;;5071433;28;20204;-82
2022/05/03 01:26:53;;;;;;;4.75;4.35;;;;;;;;;;5052076;28;20204;-81
2022/05/03 01:29:31;;;;;;;5.20;4.80;;;;;;;;;;5057528;28;20308;-82
2022/05/03 01:32:01;;;;;;;6.68;6.00;;;;;;;;;;5071348;28;20220;-82
2022/05/03 01:34:30;;;;;;;5.05;4.65;;;;;;;;;;5071949;28;20588;-82
2022/05/03 01:37:21;;;;;;;5.85;5.35;;;;;;;;;;5071906;28;20696;-82
2022/05/03 01:40:06;;;;;;;5.40;4.90;;;;;;;;;;5071884;28;20201;-82
2022/05/03 01:42:57;;;;;;;5.85;5.13;;;;;;;;;;5072041;28;20205;-82
2022/05/03 01:45:31;;;;;;;5.28;4.78;;;;;;;;;;5075517;28;20208;-81
2022/05/03 01:50:18;;;;;;;6.65;5.05;;;;;;;;;;5075358;28;20225;-82
2022/05/03 01:51:27;;;;;;;5.15;4.65;;;;;;;;;;5074878;28;20709;-82
2022/05/03 01:54:09;;;;;;;5.32;4.82;;;;;;;;;;5074313;28;20703;-82
2022/05/03 01:56:56;;;;;;;4.53;4.13;;;;;;;;;;5075285;28;20588;-82
2022/05/03 01:59:36;;;;;;;4.82;4.53;;;;;;;;;;5074282;28;20212;-81
2022/05/03 02:02:15;;;;;;;4.97;4.57;;;;;;;;;;5074471;28;20201;-81
2022/05/03 02:04:57;;;;;;;7.57;5.50;;;;;;;;;;5075295;28;20200;-82
2022/05/03 02:07:44;;;;;;;5.95;5.47;;;;;;;;;;5075091;28;20205;-82
2022/05/03 02:10:19;;;;;;;4.53;4.13;;;;;;;;;;5075243;28;20225;-81
2022/05/03 02:12:51;;;;;;;5.75;5.25;;;;;;;;;;5074195;28;20238;-82
2022/05/03 02:15:27;;;;;;;6.38;5.78;;;;;;;;;;5075136;28;20201;-81
2022/05/03 02:18:06;;;;;;;5.68;5.18;;;;;;;;;;5074747;28;20218;-82
2022/05/03 02:20:52;;;;;;;5.63;5.13;;;;;;;;;;5074962;28;20216;-82
2022/05/03 02:23:31;;;;;;;4.93;4.53;;;;;;;;;;5074506;28;20274;-81
2022/05/03 02:26:16;;;;;;;5.25;4.82;;;;;;;;;;5075012;28;20577;-81
2022/05/03 02:28:46;;;;;;;5.05;4.57;;;;;;;;;;5074706;28;20209;-81
2022/05/03 02:31:15;;;;;;;6.68;6.10;;;;;;;;;;5074338;28;20282;-82
2022/05/03 02:33:49;;;;;;;6.22;4.97;;;;;;;;;;5074052;28;20204;-82
2022/05/03 02:36:18;;;;;;;5.15;4.65;;;;;;;;;;5074371;28;20723;-82
2022/05/03 02:38:54;;;;;;;5.00;4.47;;;;;;;;;;5074121;28;20677;-83
2022/05/03 02:41:23;;;;;;;4.68;4.30;;;;;;;;;;5074523;28;20319;-83
2022/05/03 02:43:52;;;;;;;4.88;4.38;;;;;;;;;;5073570;28;20208;-82
2022/05/03 02:46:39;;;;;;;4.40;4.00;;;;;;;;;;5074086;28;20261;-82
2022/05/03 02:49:19;;;;;;;5.20;4.72;;;;;;;;;;5074271;28;20292;-82
2022/05/03 02:52:10;;;;;;;5.32;4.80;;;;;;;;;;5073712;28;20220;-82
2022/05/03 02:54:44;;;;;;;4.68;4.28;;;;;;;;;;5073923;28;20211;-83
2022/05/03 02:57:20;;;;;;;4.43;4.03;;;;;;;;;;5074079;28;20213;-82
2022/05/03 03:02:48;;;;;;;4.85;4.45;;;;;;;;;;5073371;28;20270;-82
2022/05/03 03:05:19;;;;;;;5.82;4.35;;;;;;;;;;5074550;28;20205;-82
2022/05/03 03:07:53;;;;;;;4.95;4.50;;;;;;;;;;5073622;28;20201;-82
2022/05/03 03:10:23;;;;;;;5.57;4.75;;;;;;;;;;5074077;28;20256;-82
2022/05/03 03:12:56;;;;;;;5.95;5.40;;;;;;;;;;5073249;28;20247;-81
2022/05/03 03:15:29;;;;;;;4.28;3.97;;;;;;;;;;5073613;28;20236;-81
2022/05/03 03:17:58;;;;;;;6.03;5.53;;;;;;;;;;5074339;28;20208;-83
2022/05/03 03:20:28;;;;;;;4.95;4.35;;;;;;;;;;5071824;28;20294;-82
2022/05/03 03:22:56;;;;;;;4.88;4.47;;;;;;;;;;5072842;28;20215;-82
2022/05/03 03:25:24;;;;;;;5.22;4.38;;;;;;;;;;5073142;28;20201;-82
2022/05/03 03:27:54;;;;;;;5.20;3.78;;;;;;;;;;5073736;28;20575;-81
2022/05/03 03:30:22;;;;;;;5.03;4.53;;;;;;;;;;5073149;28;20685;-82
2022/05/03 03:32:53;;;;;;;4.97;4.10;;;;;;;;;;5072897;28;20220;-81
2022/05/03 03:35:21;;;;;;;4.45;4.05;;;;;;;;;;5073463;28;20197;-81
2022/05/03 03:37:52;;;;;;;5.38;4.88;;;;;;;;;;5073581;28;20228;-82
2022/05/03 03:40:21;;;;;;;4.47;4.07;;;;;;;;;;5073071;28;20713;-82
2022/05/03 03:42:49;;;;;;;4.97;4.57;;;;;;;;;;5072141;28;20212;-82
2022/05/03 03:45:18;;;;;;;4.30;3.90;;;;;;;;;;5073127;28;20204;-81
2022/05/03 03:47:46;;;;;;;5.32;4.72;;;;;;;;;;5072898;28;20197;-82
2022/05/03 03:50:15;;;;;;;4.22;3.92;;;;;;;;;;5072959;28;20236;-81
2022/05/03 03:52:46;;;;;;;4.65;4.30;;;;;;;;;;5072308;28;20638;-81
2022/05/03 03:55:15;;;;;;;4.63;4.30;;;;;;;;;;5073276;28;20199;-82
2022/05/03 03:57:43;;;;;;;5.30;4.53;;;;;;;;;;5073067;28;20212;-81
2022/05/03 04:00:13;;;;;;;5.43;4.93;;;;;;;;;;5072791;28;20213;-82
2022/05/03 04:02:42;;;;;;;5.40;4.70;;;;;;;;;;5072075;28;20201;-82
2022/05/03 04:05:16;;;;;;;5.28;4.75;;;;;;;;;;5073163;28;20296;-82
2022/05/03 04:07:44;;;;;;;5.35;4.85;;;;;;;;;;5072290;28;20201;-82
2022/05/03 04:10:13;;;;;;;5.15;4.65;;;;;;;;;;5073077;28;20221;-81
2022/05/03 04:12:41;;;;;;;5.45;4.95;;;;;;;;;;5072007;28;20646;-82
2022/05/03 04:15:10;;;;;;;7.00;4.75;;;;;;;;;;5076311;28;20197;-81
2022/05/03 04:17:37;;;;;;;4.95;4.53;;;;;;;;;;5074693;28;20205;-82
2022/05/03 04:20:05;;;;;;;4.88;4.38;;;;;;;;;;5073017;28;20225;-81
2022/05/03 04:22:34;;;;;;;4.45;4.00;;;;;;;;;;5072353;28;20588;-83
2022/05/03 04:25:03;;;;;;;4.32;3.92;;;;;;;;;;5072567;28;20266;-82
2022/05/03 04:27:33;;;;;;;5.35;4.28;;;;;;;;;;5072439;28;20244;-82
2022/05/03 04:30:02;;;;;;;5.70;5.15;;;;;;;;;;5072960;28;20220;-82
2022/05/03 04:32:30;;;;;;;6.10;4.13;;;;;;;;;;5072434;28;20225;-81
2022/05/03 04:34:57;;;;;;;5.03;4.63;;;;;;;;;;5072807;28;20236;-84
2022/05/03 04:37:25;;;;;;;4.32;3.92;;;;;;;;;;5072561;28;20193;-81
2022/05/03 04:39:52;;;;;;;4.28;3.80;;;;;;;;;;5072312;28;20196;-82
2022/05/03 04:42:20;;;;;;;4.18;3.78;;;;;;;;;;5071820;28;20205;-81
2022/05/03 04:44:48;;;;;;;5.35;3.53;;;;;;;;;;5073662;28;20189;-82
2022/05/03 04:47:16;;;;;;;4.43;3.83;;;;;;;;;;5075706;28;20201;-81
2022/05/03 04:49:43;;;;;;;4.72;4.32;;;;;;;;;;5072866;28;20211;-82
2022/05/03 04:52:11;;;;;;;5.30;4.18;;;;;;;;;;5072398;28;20259;-82
2022/05/03 04:54:38;;;;;;;5.45;3.85;;;;;;;;;;5072801;28;20197;-82
2022/05/03 04:57:09;;;;;;;3.83;3.53;;;;;;;;;;5072486;28;20692;-82
2022/05/03 04:59:38;;;;;;;4.20;3.83;;;;;;;;;;5072966;28;20205;-82
2022/05/03 05:02:07;;;;;;;4.22;3.88;;;;;;;;;;5072247;28;20235;-76
2022/05/03 05:04:34;;;;;;;4.28;3.97;;;;;;;;;;5072062;28;20215;-77
2022/05/03 05:07:02;;;;;;;4.70;3.35;;;;;;;;;;5071919;28;20208;-78
2022/05/03 05:09:29;;;;;;;4.05;3.65;;;;;;;;;;5072010;28;20212;-76
2022/05/03 05:11:56;;;;;;;6.05;4.35;;;;;;;;;;5070928;28;20244;-79
2022/05/03 05:14:24;;;;;;;4.40;3.97;;;;;;;;;;5071961;28;20205;-77
2022/05/03 05:16:51;;;;;;;5.13;3.80;;;;;;;;;;5071738;28;20274;-77
2022/05/03 05:19:20;;;;;;;4.00;3.65;;;;;;;;;;5075519;28;20378;-77
2022/05/03 05:21:47;;;;;;;4.38;3.97;;;;;;;;;;5074975;28;20224;-77
2022/05/03 05:24:14;;;;;;;4.72;4.10;;;;;;;;;;5075709;28;20204;-77
2022/05/03 05:26:42;;;;;;;4.28;3.80;;;;;;;;;;5075756;28;20209;-76
2022/05/03 05:29:09;;;;;;;4.43;4.05;;;;;;;;;;5075592;28;20201;-77
2022/05/03 05:31:37;;;;;;;3.72;3.38;;;;;;;;;;5074835;28;20225;-78
2022/05/03 05:34:04;;;;;;;3.67;3.35;;;;;;;;;;5076145;28;20197;-79
2022/05/03 05:36:33;;;;;;;3.55;3.25;;;;;;;;;;5076078;28;20254;-78
2022/05/03 05:39:00;;;;;;;3.25;3.00;;;;;;;;;;5075960;28;20201;-77
2022/05/03 05:41:28;;;;;;;3.30;3.10;;;;;;;;;;5075727;28;20299;-77
2022/05/03 05:43:55;;;;;;;2.80;2.42;;;;;;;;;;5075312;28;20262;-77
2022/05/03 05:46:22;;;;;;;4.47;4.13;;;;;;;;;;5075296;28;20205;-78
2022/05/03 05:48:50;;;;;;;3.38;3.08;;;;;;;;;;5075491;28;20208;-77
2022/05/03 05:51:17;;;;;;;3.92;3.58;;;;;;;;;;5075670;28;20221;-77
2022/05/03 05:53:45;;;;;;;3.35;3.05;;;;;;;;;;5075125;28;20255;-80
2022/05/03 05:56:12;;;;;;;3.25;2.95;;;;;;;;;;5075295;28;20205;-79
2022/05/03 05:58:39;;;;;;;3.00;2.80;;;;;;;;;;5074752;28;20204;-77
2022/05/03 06:01:06;;;;;;;3.25;2.95;;;;;;;;;;5074868;28;20282;-78
2022/05/03 06:03:34;;;;;;;2.45;2.25;;;;;;;;;;5074371;28;20203;-78
2022/05/03 06:06:02;;;;;;;3.53;3.28;;;;;;;;;;5074976;28;20240;-78
2022/05/03 06:08:29;;;;;;;3.15;2.90;;;;;;;;;;5075101;28;20228;-78
2022/05/03 06:10:59;;;;;;;3.38;2.95;;;;;;;;;;5074505;28;20229;-78
2022/05/03 06:13:27;;;;;;;3.90;3.33;;;;;;;;;;5074716;28;20312;-77
2022/05/03 06:15:55;;;;;;;3.45;3.15;;;;;;;;;;5075199;28;20229;-78
2022/05/03 06:18:23;;;;;;;4.38;3.25;;;;;;;;;;5075135;28;20291;-78
2022/05/03 06:20:50;;;;;;;4.00;3.50;;;;;;;;;;5074635;28;20321;-78
2022/05/03 06:23:18;;;;;;;3.70;3.33;;;;;;;;;;5073759;28;20674;-78
2022/05/03 06:25:45;;;;;;;3.20;2.92;;;;;;;;;;5074389;28;20295;-78
2022/05/03 06:28:14;;;;;;;4.00;3.60;;;;;;;;;;5074702;28;20225;-78
2022/05/03 06:30:41;;;;;;;3.40;3.20;;;;;;;;;;5073560;28;20625;-78
2022/05/03 06:33:09;;;;;;;3.50;2.92;;;;;;;;;;5074156;28;20676;-78
2022/05/03 06:35:36;;;;;;;3.30;3.00;;;;;;;;;;5074977;28;20205;-78
2022/05/03 06:38:03;;;;;;;3.55;3.25;;;;;;;;;;5074819;28;20197;-78
2022/05/03 06:40:31;;;;;;;3.20;3.00;;;;;;;;;;5074482;28;20229;-77
2022/05/03 06:42:59;;;;;;;4.50;3.67;;;;;;;;;;5074126;28;20208;-79
2022/05/03 06:45:27;;;;;;;4.03;3.72;;;;;;;;;;5074573;28;20661;-77
2022/05/03 06:47:55;;;;;;;3.08;2.88;;;;;;;;;;5074115;28;20254;-78
2022/05/03 06:50:22;;;;;;;4.03;3.47;;;;;;;;;;5072890;28;20645;-78
2022/05/03 06:52:50;;;;;;;3.33;3.03;;;;;;;;;;5073019;28;20798;-79
2022/05/03 06:55:17;;;;;;;3.17;2.88;;;;;;;;;;5072818;28;20673;-78
2022/05/03 06:57:44;;;;;;;4.30;3.90;;;;;;;;;;5073276;28;20214;-79
2022/05/03 07:00:13;;;;;;;3.90;3.47;;;;;;;;;;5073771;28;20221;-78
2022/05/03 07:02:43;;;;;;;3.03;2.72;;;;;;;;;;5073319;28;20201;-79
2022/05/03 07:05:11;;;;;;;3.65;2.67;;;;;;;;;;5074119;28;20205;-79
2022/05/03 07:07:39;;;;;;;2.65;2.45;;;;;;;;;;5074580;28;20256;-79
2022/05/03 07:10:08;;;;;;;2.95;2.75;;;;;;;;;;5074616;28;20220;-79
2022/05/03 07:12:35;;;;;;;3.35;2.80;;;;;;;;;;5073050;28;20233;-79
2022/05/03 07:15:05;;;;;;;2.95;2.70;;;;;;;;;;5074664;28;20204;-79
2022/05/03 07:23:03;;;;;;;2.88;2.60;;;;;;;;;;5073527;28;20288;-79
2022/05/03 07:25:31;;;;;;;3.30;3.00;;;;;;;;;;5073725;28;20196;-79
2022/05/03 07:27:59;;;;;;;2.80;2.60;;;;;;;;;;5074513;28;20197;-80
2022/05/03 07:30:26;;;;;;;3.00;2.80;;;;;;;;;;5074414;28;20224;-79
2022/05/03 07:32:54;;;;;;;3.13;2.92;;;;;;;;;;5073150;28;20231;-79
2022/05/03 07:35:23;;;;;;;2.58;2.38;;;;;;;;;;5076083;28;20211;-79
2022/05/03 07:37:52;;;;;;;2.58;2.38;;;;;;;;;;5075032;28;20397;-78
2022/05/03 07:40:19;;;;;;;4.75;2.97;;;;;;;;;;5072849;28;20229;-77
2022/05/03 07:42:47;;;;;;;2.70;2.50;;;;;;;;;;5073473;28;20209;-78
2022/05/03 07:45:15;;;;;;;3.70;2.90;;;;;;;;;;5074206;28;20216;-77
2022/05/03 07:47:43;;;;;;;4.07;3.60;;;;;;;;;;5074199;28;20297;-78
2022/05/03 07:50:11;;;;;;;3.17;2.88;;;;;;;;;;5073484;28;20221;-78
2022/05/03 07:52:40;;;;;;;2.55;2.35;;;;;;;;;;5073107;28;20205;-79
2022/05/03 07:55:09;;;;;;;3.53;3.22;;;;;;;;;;5073539;28;20200;-78
2022/05/03 07:57:37;;;;;;;3.03;2.83;;;;;;;;;;5073268;28;20681;-78
2022/05/03 08:00:06;;;;;;;2.72;2.53;;;;;;;;;;5073336;28;20270;-78
2022/05/03 08:02:33;;;;;;;3.53;3.13;;;;;;;;;;5073657;28;20201;-78
2022/05/03 08:05:00;;;;;;;6.45;3.40;;;;;;;;;;5073294;28;20205;-78
2022/05/03 08:07:28;;;;;;;3.10;2.90;;;;;;;;;;5073140;28;20204;-79
2022/05/03 08:09:56;;;;;;;3.53;2.80;;;;;;;;;;5073456;28;21596;-78
2022/05/03 08:12:24;;;;;;;2.80;2.60;;;;;;;;;;5072317;28;20208;-78
2022/05/03 08:14:53;;;;;;;3.20;2.92;;;;;;;;;;5072910;28;20221;-78
2022/05/03 08:17:20;;;;;;;3.58;3.28;;;;;;;;;;5072728;28;20250;-77
2022/05/03 08:19:47;;;;;;;2.80;2.60;;;;;;;;;;5074750;28;20285;-81
2022/05/03 08:22:15;;;;;;;3.80;3.30;;;;;;;;;;5071915;28;20212;-76
2022/05/03 08:24:42;;;;;;;2.80;2.60;;;;;;;;;;5072397;28;20193;-78
2022/05/03 08:27:11;;;;;;;3.13;2.90;;;;;;;;;;5072891;28;20211;-77
2022/05/03 08:29:38;;;;;;;2.70;2.50;;;;;;;;;;5073440;28;20212;-78
2022/05/03 08:32:06;;;;;;;3.10;2.85;;;;;;;;;;5072388;28;20672;-77
2022/05/03 08:34:34;;;;;;;2.60;2.40;;;;;;;;;;5073824;28;20228;-78
2022/05/03 08:42:33;;;;;;;3.35;3.00;;;;;;;;;;5072674;28;20658;-79
2022/05/03 08:45:01;;;;;;;3.15;2.85;;;;;;;;;;5072904;28;20242;-80
2022/05/03 08:47:29;;;;;;;2.53;2.33;;;;;;;;;;5072809;28;20588;-79
2022/05/03 08:50:03;;;;;;;3.28;3.00;;;;;;;;;;5072170;28;20229;-80
2022/05/03 08:52:33;;;;;;;3.25;2.95;;;;;;;;;;5071837;28;20204;-80
2022/05/03 08:55:01;;;;;;;2.65;2.45;;;;;;;;;;5072823;28;20248;-79
2022/05/03 08:57:29;;;;;;;2.95;2.67;;;;;;;;;;5072968;28;20213;-80
2022/05/03 08:59:58;;;;;;;2.35;2.15;;;;;;;;;;5073322;28;20591;-79
2022/05/03 09:02:26;;;;;;;3.20;2.90;;;;;;;;;;5070611;28;20228;-79
2022/05/03 09:04:53;;;;;;;3.15;2.60;;;;;;;;;;5072942;28;20197;-80
2022/05/03 09:07:23;;;;;;;2.13;2.00;;;;;;;;;;5072516;28;20688;-79
2022/05/03 09:09:52;;;;;;;2.20;2.00;;;;;;;;;;5072954;28;20673;-80
2022/05/03 09:12:25;;;;;;;2.38;2.17;;;;;;;;;;5072104;28;20201;-79
2022/05/03 09:14:53;;;;;;;2.17;2.00;;;;;;;;;;5072908;28;20226;-79
2022/05/03 09:17:40;;;;;;;2.55;2.35;;;;;;;;;;5072380;28;20636;-79
2022/05/03 09:25:50;;;;;;;4.57;2.58;;;;;;;;;;5072941;28;20204;-79
2022/05/03 09:28:21;;;;;;;3.13;2.63;;;;;;;;;;5072898;28;20205;-80
2022/05/03 09:30:51;;;;;;;2.92;2.30;;;;;;;;;;5073002;28;20221;-79
2022/05/03 09:33:22;;;;;;;2.53;2.33;;;;;;;;;;5072263;28;20234;-80
2022/05/03 09:35:49;;;;;;;2.97;2.78;;;;;;;;;;5072599;28;20669;-79
2022/05/03 09:38:17;;;;;;;3.05;2.85;;;;;;;;;;5072922;28;20212;-80
2022/05/03 09:40:47;;;;;;;3.45;3.17;;;;;;;;;;5072416;28;20227;-79
2022/05/03 09:43:16;;;;;;;3.05;2.80;;;;;;;;;;5051737;28;20628;-80
2022/05/03 09:45:44;;;;;;;3.92;3.17;;;;;;;;;;5052564;28;20293;-80
2022/05/03 09:48:11;;;;;;;2.42;2.22;;;;;;;;;;5052600;28;20275;-80
2022/05/03 09:50:43;;;;;;;3.55;3.28;;;;;;;;;;5051950;28;20316;-80
2022/05/03 09:53:14;;;;;;;3.00;2.80;;;;;;;;;;5052112;28;20213;-80
2022/05/03 09:55:42;;;;;;;4.43;3.30;;;;;;;;;;5052575;28;20225;-80
2022/05/03 09:58:13;;;;;;;6.13;3.30;;;;;;;;;;5052667;28;20300;-79
2022/05/03 10:00:42;;;;;;;4.38;3.58;;;;;;;;;;5052655;28;20226;-79
2022/05/03 10:03:11;;;;;;;3.67;3.20;;;;;;;;;;5051719;28;20202;-79
2022/05/03 10:05:41;;;;;;;3.00;2.80;;;;;;;;;;5054638;28;20231;-81
2022/05/03 10:08:11;;;;;;;3.45;3.13;;;;;;;;;;5055879;28;20673;-80
2022/05/03 10:10:44;;;;;;;4.65;4.03;;;;;;;;;;5055890;28;20234;-79
2022/05/03 10:13:14;;;;;;;3.50;3.20;;;;;;;;;;5055314;28;20201;-80
2022/05/03 10:21:29;;;;;;;4.30;3.90;;;;;;;;;;5055576;28;20307;-80
2022/05/03 10:24:07;;;;;;;5.22;3.83;;;;;;;;;;5055009;28;20197;-80
2022/05/03 10:27:01;;;;;;;4.38;3.97;;;;;;;;;;5055852;28;20255;-80
2022/05/03 10:29:31;;;;;;;4.95;4.35;;;;;;;;;;5055732;28;20628;-79
2022/05/03 10:32:02;;;;;;;2.90;2.70;;;;;;;;;;5055011;28;20675;-80
2022/05/03 10:34:53;;;;;;;4.90;4.50;;;;;;;;;;5055603;28;20256;-79
2022/05/03 10:38:01;;;;;;;4.07;3.80;;;;;;;;;;5054933;28;20235;-79
2022/05/03 10:40:34;;;;;;;5.50;5.03;;;;;;;;;;5055057;28;20221;-79
2022/05/03 10:43:09;;;;;;;4.53;4.13;;;;;;;;;;5072611;28;20201;-80
2022/05/03 10:45:54;;;;;;;5.70;5.18;;;;;;;;;;5074603;28;20692;-79
2022/05/03 10:48:30;;;;;;;4.25;3.95;;;;;;;;;;5074743;28;20205;-80
2022/05/03 10:51:00;;;;;;;5.00;4.53;;;;;;;;;;5074756;28;20235;-80
2022/05/03 10:53:32;;;;;;;4.53;3.92;;;;;;;;;;5074145;28;20653;-80
2022/05/03 10:56:10;;;;;;;4.20;3.80;;;;;;;;;;5074575;28;20221;-79
2022/05/03 10:58:39;;;;;;;4.05;3.75;;;;;;;;;;5074659;28;20204;-79
2022/05/03 11:01:09;;;;;;;4.50;3.90;;;;;;;;;;5074844;28;20320;-80
2022/05/03 11:03:38;;;;;;;4.15;3.85;;;;;;;;;;5073962;28;20204;-79
2022/05/03 11:06:41;;;;;;;4.30;3.90;;;;;;;;;;5074393;28;20201;-79
2022/05/03 11:09:29;;;;;;;3.85;3.45;;;;;;;;;;5075134;28;20247;-81
2022/05/03 11:12:05;;;;;;;3.70;3.40;;;;;;;;;;5072910;28;20240;-79
2022/05/03 11:14:50;;;;;;;3.60;3.30;;;;;;;;;;5074208;28;20205;-80
2022/05/03 11:17:18;;;;;;;3.80;3.50;;;;;;;;;;5074059;28;20197;-78
2022/05/03 11:20:07;;;;;;;3.47;3.28;;;;;;;;;;5074033;28;20587;-79
2022/05/03 11:22:36;;;;;;;3.50;3.20;;;;;;;;;;5069302;28;20201;-82
2022/05/03 11:25:13;;;;;;;4.45;4.00;;;;;;;;;;5073349;28;20661;-79
2022/05/03 11:27:40;;;;;;;4.13;3.83;;;;;;;;;;5073662;28;20665;-79
2022/05/03 11:30:11;;;;;;;3.80;3.50;;;;;;;;;;5073779;28;20777;-80
2022/05/03 11:32:40;;;;;;;3.38;3.10;;;;;;;;;;5072716;28;20246;-79
2022/05/03 11:35:11;;;;;;;3.53;3.30;;;;;;;;;;5073708;28;20219;-79
2022/05/03 11:37:52;;;;;;;2.78;2.58;;;;;;;;;;5073812;28;20208;-80
2022/05/03 11:40:23;;;;;;;3.47;3.17;;;;;;;;;;5073590;28;20232;-80
2022/05/03 11:42:51;;;;;;;4.40;3.15;;;;;;;;;;5073081;28;20593;-80
2022/05/03 11:45:19;;;;;;;3.40;3.10;;;;;;;;;;5073558;28;20258;-79
2022/05/03 11:47:48;;;;;;;4.05;3.15;;;;;;;;;;5073455;28;20235;-79
2022/05/03 11:56:04;;;;;;;4.07;3.70;;;;;;;;;;5071731;28;20236;-79
2022/05/03 11:58:34;;;;;;;3.38;2.90;;;;;;;;;;5073281;28;20204;-80
2022/05/03 12:01:02;;;;;;;3.63;3.33;;;;;;;;;;5073546;28;20256;-81
2022/05/03 12:03:31;;;;;;;3.42;3.13;;;;;;;;;;5072697;28;20205;-80
2022/05/03 12:06:01;;;;;;;3.22;2.95;;;;;;;;;;5073237;28;20201;-80
2022/05/03 12:08:30;;;;;;;3.00;2.80;;;;;;;;;;5073535;28;20696;-80
2022/05/03 12:10:58;;;;;;;2.85;2.65;;;;;;;;;;5073515;28;20216;-81
2022/05/03 12:13:34;;;;;;;2.67;2.47;;;;;;;;;;5073044;28;20216;-81
2022/05/03 12:16:11;;;;;;;2.55;2.35;;;;;;;;;;5073574;28;20233;-80
2022/05/03 12:18:41;;;;;;;2.20;2.10;;;;;;;;;;5073558;28;20205;-80
2022/05/03 12:21:11;;;;;;;2.85;2.40;;;;;;;;;;5073450;28;20228;-80
2022/05/03 12:23:42;;;;;;;4.18;2.63;;;;;;;;;;5071776;28;20651;-79
2022/05/03 12:26:25;;;;;;;2.67;2.47;;;;;;;;;;5073491;28;20208;-80
2022/05/03 12:28:54;;;;;;;3.25;2.85;;;;;;;;;;5072582;28;20216;-80
2022/05/03 12:31:24;;;;;;;1.95;1.85;;;;;;;;;;5073139;28;20221;-80
2022/05/03 12:33:54;;;;;;;2.65;2.45;;;;;;;;;;5071995;28;20205;-80
2022/05/03 12:36:37;;;;;;;3.15;2.88;;;;;;;;;;5073080;28;20223;-80
2022/05/03 12:39:15;;;;;;;3.03;2.53;;;;;;;;;;5073560;28;20250;-79
2022/05/03 12:41:45;;;;;;;2.10;2.00;;;;;;;;;;5072721;28;20220;-80
2022/05/03 12:44:14;;;;;;;2.55;2.35;;;;;;;;;;5072783;28;20201;-80
2022/05/03 12:46:43;;;;;;;3.13;2.92;;;;;;;;;;5072972;28;20193;-78
2022/05/03 12:49:12;;;;;;;2.60;2.40;;;;;;;;;;5072683;28;20205;-80
2022/05/03 12:51:42;;;;;;;2.10;2.00;;;;;;;;;;5072056;28;20225;-81
2022/05/03 12:54:10;;;;;;;2.92;2.53;;;;;;;;;;5072802;28;20200;-80
2022/05/03 12:59:25;;;;;;;2.60;2.40;;;;;;;;;;5072668;28;20201;-80
2022/05/03 13:01:54;;;;;;;2.60;2.40;;;;;;;;;;5072008;28;20221;-81
2022/05/03 13:04:22;;;;;;;3.35;3.05;;;;;;;;;;5072698;28;20227;-81
2022/05/03 13:06:50;;;;;;;4.18;2.90;;;;;;;;;;5072796;28;20201;-81
2022/05/03 13:09:17;;;;;;;3.72;3.42;;;;;;;;;;5072538;28;20231;-80
2022/05/03 13:11:46;;;;;;;3.17;2.97;;;;;;;;;;5071575;28;20315;-80
2022/05/03 13:14:15;;;;;;;4.32;3.97;;;;;;;;;;5072671;28;20197;-80
2022/05/03 13:16:45;;;;;;;4.13;3.83;;;;;;;;;;5072598;28;20273;-80
2022/05/03 13:19:13;;;;;;;3.72;3.42;;;;;;;;;;5072329;28;20197;-80
2022/05/03 13:21:42;;;;;;;4.43;4.03;;;;;;;;;;5071007;28;20221;-80
2022/05/03 13:24:10;;;;;;;3.80;3.50;;;;;;;;;;5072325;28;20692;-80
2022/05/03 13:26:39;;;;;;;3.90;3.60;;;;;;;;;;5072987;28;20212;-80
2022/05/03 13:29:11;;;;;;;3.83;3.42;;;;;;;;;;5073282;28;20216;-78
2022/05/03 13:31:39;;;;;;;3.90;3.50;;;;;;;;;;5072291;28;20221;-79
2022/05/03 13:34:09;;;;;;;4.20;3.58;;;;;;;;;;5073172;28;20212;-79
2022/05/03 13:42:08;;;;;;;3.58;3.33;;;;;;;;;;5075527;28;20290;-80
2022/05/03 13:44:36;;;;;;;3.30;3.05;;;;;;;;;;5076652;28;20250;-80
2022/05/03 13:47:05;;;;;;;4.40;4.10;;;;;;;;;;5076636;28;20233;-80
2022/05/03 13:49:34;;;;;;;3.65;3.35;;;;;;;;;;5076066;28;20625;-80
2022/05/03 13:52:02;;;;;;;3.20;3.00;;;;;;;;;;5074966;28;20221;-80
2022/05/03 13:54:29;;;;;;;2.78;2.58;;;;;;;;;;5075979;28;20573;-79
2022/05/03 13:56:56;;;;;;;2.90;2.70;;;;;;;;;;5075713;28;20229;-80
2022/05/03 13:59:23;;;;;;;2.92;2.70;;;;;;;;;;5075764;28;20228;-80
2022/05/03 14:01:51;;;;;;;2.53;2.33;;;;;;;;;;5074855;28;20225;-79
2022/05/03 14:04:18;;;;;;;3.30;3.10;;;;;;;;;;5075830;28;20204;-80
2022/05/03 14:06:47;;;;;;;3.40;3.15;;;;;;;;;;5075612;28;20589;-79
2022/05/03 14:09:14;;;;;;;5.00;2.95;;;;;;;;;;5075434;28;20592;-80
2022/05/03 14:11:42;;;;;;;3.25;3.05;;;;;;;;;;5075307;28;20224;-80
2022/05/03 14:14:09;;;;;;;3.53;3.22;;;;;;;;;;5075872;28;20259;-79
2022/05/03 14:16:37;;;;;;;3.65;3.35;;;;;;;;;;5075493;28;20311;-80
2022/05/03 14:19:04;;;;;;;3.13;2.92;;;;;;;;;;5075523;28;20207;-80
2022/05/03 14:21:31;;;;;;;3.85;3.45;;;;;;;;;;5074950;28;20228;-78
2022/05/03 14:24:00;;;;;;;3.53;3.15;;;;;;;;;;5074713;28;20681;-80
2022/05/03 14:26:28;;;;;;;3.47;3.17;;;;;;;;;;5075798;28;20750;-80
2022/05/03 14:28:55;;;;;;;3.53;3.22;;;;;;;;;;5075979;28;20197;-79
2022/05/03 14:31:25;;;;;;;3.60;3.30;;;;;;;;;;5075951;28;20225;-79
2022/05/03 14:33:53;;;;;;;3.65;3.35;;;;;;;;;;5074739;28;20201;-80
2022/05/03 14:36:20;;;;;;;2.63;2.42;;;;;;;;;;5075253;28;20205;-80
2022/05/03 14:38:48;;;;;;;2.85;2.65;;;;;;;;;;5075026;28;20978;-82
2022/05/03 14:41:16;;;;;;;2.42;2.33;;;;;;;;;;5074559;28;20224;-80
2022/05/03 14:43:44;;;;;;;2.80;2.55;;;;;;;;;;5073743;28;20201;-79
2022/05/03 14:46:11;;;;;;;2.88;2.67;;;;;;;;;;5074732;28;20197;-80
2022/05/03 14:48:38;;;;;;;3.05;2.75;;;;;;;;;;5074602;28;20209;-80
2022/05/03 14:51:06;;;;;;;3.70;2.78;;;;;;;;;;5073854;28;20225;-78
2022/05/03 14:53:33;;;;;;;2.92;2.65;;;;;;;;;;5073716;28;20197;-79
2022/05/03 15:04:16;;;;;;;2.92;2.72;;;;;;;;;;5043982;28;20208;-82
2022/05/03 15:06:43;;;;;;;2.55;2.35;;;;;;;;;;5075701;28;20205;-81
2022/05/03 15:09:12;;;;;;;2.00;1.90;;;;;;;;;;5075399;28;20750;-82
2022/05/03 15:11:39;;;;;;;2.42;2.33;;;;;;;;;;5075652;28;20603;-81
2022/05/03 15:14:08;;;;;;;2.40;2.30;;;;;;;;;;5076135;28;20212;-81
2022/05/03 15:16:35;;;;;;;6.05;3.70;;;;;;;;;;5075608;28;20288;-81
2022/05/03 15:19:03;;;;;;;2.88;2.67;;;;;;;;;;5075046;28;20208;-81
2022/05/03 15:21:31;;;;;;;2.80;2.60;;;;;;;;;;5075229;28;20225;-82
2022/05/03 15:26:43;;;;;;;3.13;2.90;;;;;;;;;;5075288;28;20581;-81
2022/05/03 15:29:15;;;;;;;2.67;2.40;;;;;;;;;;5074651;28;20201;-81
2022/05/03 15:31:42;;;;;;;2.88;2.58;;;;;;;;;;5072548;28;20312;-81
2022/05/03 15:34:09;;;;;;;2.45;2.25;;;;;;;;;;5073413;28;20204;-80
2022/05/03 15:36:37;;;;;;;2.67;2.47;;;;;;;;;;5073186;28;20205;-80
2022/05/03 15:39:05;;;;;;;2.08;1.85;;;;;;;;;;5073026;28;20402;-80
2022/05/03 15:41:33;;;;;;;2.85;2.65;;;;;;;;;;5072736;28;20221;-80
2022/05/03 15:44:01;;;;;;;3.40;3.10;;;;;;;;;;5072526;28;20665;-80
2022/05/03 15:46:30;;;;;;;2.88;2.67;;;;;;;;;;5072938;28;20204;-79
2022/05/03 15:48:57;;;;;;;2.80;2.60;;;;;;;;;;5073074;28;20563;-80
2022/05/03 15:51:25;;;;;;;3.17;2.92;;;;;;;;;;5073542;28;20225;-79
2022/05/03 15:53:52;;;;;;;2.78;2.55;;;;;;;;;;5073342;28;20201;-80
2022/05/03 15:56:20;;;;;;;2.58;2.35;;;;;;;;;;5074199;28;20640;-80